sensor_id;sensor_type;location;lat;lon;timestamp;pressure;altitude;pressure_sealevel;temperature;humidity
64610;BME280;51019;46.090;6.350;2023-05-13T00:01:09;96306.34;;;9.12;100.00
64610;BME280;51019;46.090;6.350;2023-05-13T00:03:38;96290.25;;;8.97;100.00
64610;BME280;51019;46.090;6.350;2023-05-13T00:06:05;96309.22;;;9.18;100.00
64610;BME280;51019;46.090;6.350;2023-05-13T00:08:41;96299.19;;;9.14;100.00
64610;BME280;51019;46.090;6.350;2023-05-13T00:11:10;96310.59;;;9.03;100.00
64610;BME280;51019;46.090;6.350;2023-05-13T00:13:41;96292.72;;;8.89;100.00
64610;BME280;51019;46.090;6.350;2023-05-13T00:16:08;96285.16;;;8.95;100.00
64610;BME280;51019;46.090;6.350;2023-05-13T00:18:36;96317.19;;;9.17;100.00
64610;BME280;51019;46.090;6.350;2023-05-13T00:21:04;96314.72;;;9.15;100.00
64610;BME280;51019;46.090;6.350;2023-05-13T00:23:32;96320.06;;;9.33;100.00
64610;BME280;51019;46.090;6.350;2023-05-13T00:26:00;96305.38;;;9.22;100.00
64610;BME280;51019;46.090;6.350;2023-05-13T00:28:30;96309.59;;;9.42;100.00
64610;BME280;51019;46.090;6.350;2023-05-13T00:30:59;96303.69;;;9.31;100.00
64610;BME280;51019;46.090;6.350;2023-05-13T00:33:27;96297.38;;;9.24;100.00
64610;BME280;51019;46.090;6.350;2023-05-13T00:35:55;96316.34;;;9.45;100.00
64610;BME280;51019;46.090;6.350;2023-05-13T00:38:26;96308.63;;;9.43;100.00
64610;BME280;51019;46.090;6.350;2023-05-13T00:40:54;96324.22;;;9.35;100.00
64610;BME280;51019;46.090;6.350;2023-05-13T00:43:22;96320.22;;;9.31;100.00
64610;BME280;51019;46.090;6.350;2023-05-13T00:45:53;96322.13;;;9.29;100.00
64610;BME280;51019;46.090;6.350;2023-05-13T00:48:22;96304.41;;;9.23;100.00
64610;BME280;51019;46.090;6.350;2023-05-13T00:50:50;96315.22;;;9.57;100.00
64610;BME280;51019;46.090;6.350;2023-05-13T00:53:18;96308.25;;;9.75;100.00
64610;BME280;51019;46.090;6.350;2023-05-13T00:55:47;96325.31;;;9.89;100.00
64610;BME280;51019;46.090;6.350;2023-05-13T00:58:14;96325.63;;;9.76;100.00
64610;BME280;51019;46.090;6.350;2023-05-13T01:03:40;96315.19;;;9.67;100.00
64610;BME280;51019;46.090;6.350;2023-05-13T01:06:13;96303.50;;;9.52;100.00
64610;BME280;51019;46.090;6.350;2023-05-13T01:08:50;96323.88;;;9.58;100.00
64610;BME280;51019;46.090;6.350;2023-05-13T01:11:23;96325.63;;;9.76;100.00
64610;BME280;51019;46.090;6.350;2023-05-13T01:14:00;96326.03;;;9.72;100.00
64610;BME280;51019;46.090;6.350;2023-05-13T01:16:33;96329.22;;;9.66;100.00
64610;BME280;51019;46.090;6.350;2023-05-13T01:19:18;96326.16;;;9.80;100.00
64610;BME280;51019;46.090;6.350;2023-05-13T01:21:54;96314.59;;;9.73;100.00
64610;BME280;51019;46.090;6.350;2023-05-13T01:24:22;96328.00;;;9.70;100.00
64610;BME280;51019;46.090;6.350;2023-05-13T01:26:50;96311.16;;;9.72;100.00
64610;BME280;51019;46.090;6.350;2023-05-13T01:29:18;96322.59;;;9.71;100.00
64610;BME280;51019;46.090;6.350;2023-05-13T01:31:45;96339.66;;;9.75;100.00
64610;BME280;51019;46.090;6.350;2023-05-13T01:34:17;96336.88;;;9.87;100.00
64610;BME280;51019;46.090;6.350;2023-05-13T01:36:46;96336.84;;;9.96;100.00
64610;BME280;51019;46.090;6.350;2023-05-13T01:39:19;96333.25;;;9.97;100.00
64610;BME280;51019;46.090;6.350;2023-05-13T01:41:47;96337.41;;;10.00;100.00
64610;BME280;51019;46.090;6.350;2023-05-13T01:44:16;96340.94;;;10.08;100.00
64610;BME280;51019;46.090;6.350;2023-05-13T01:46:46;96342.50;;;10.01;100.00
64610;BME280;51019;46.090;6.350;2023-05-13T01:49:16;96338.91;;;10.02;100.00
64610;BME280;51019;46.090;6.350;2023-05-13T01:51:44;96344.69;;;9.96;100.00
64610;BME280;51019;46.090;6.350;2023-05-13T01:54:13;96326.03;;;9.81;100.00
64610;BME280;51019;46.090;6.350;2023-05-13T01:56:44;96339.31;;;9.98;100.00
64610;BME280;51019;46.090;6.350;2023-05-13T01:59:11;96339.47;;;9.96;100.00
64610;BME280;51019;46.090;6.350;2023-05-13T02:01:40;96338.56;;;9.78;100.00
64610;BME280;51019;46.090;6.350;2023-05-13T02:04:09;96345.31;;;9.80;100.00
64610;BME280;51019;46.090;6.350;2023-05-13T02:06:37;96351.94;;;9.75;100.00
64610;BME280;51019;46.090;6.350;2023-05-13T02:09:06;96331.75;;;9.58;100.00
64610;BME280;51019;46.090;6.350;2023-05-13T02:11:34;96351.81;;;9.67;100.00
64610;BME280;51019;46.090;6.350;2023-05-13T02:14:04;96321.50;;;9.74;100.00
64610;BME280;51019;46.090;6.350;2023-05-13T02:16:33;96344.00;;;10.04;100.00
64610;BME280;51019;46.090;6.350;2023-05-13T02:19:01;96346.09;;;9.91;100.00
64610;BME280;51019;46.090;6.350;2023-05-13T02:21:29;96354.63;;;10.02;100.00
64610;BME280;51019;46.090;6.350;2023-05-13T02:23:57;96349.94;;;9.96;100.00
64610;BME280;51019;46.090;6.350;2023-05-13T02:26:25;96345.97;;;9.92;100.00
64610;BME280;51019;46.090;6.350;2023-05-13T02:28:52;96353.81;;;9.92;100.00
64610;BME280;51019;46.090;6.350;2023-05-13T02:31:22;96338.41;;;9.89;100.00
64610;BME280;51019;46.090;6.350;2023-05-13T02:33:51;96349.84;;;9.88;100.00
64610;BME280;51019;46.090;6.350;2023-05-13T02:36:19;96341.22;;;9.68;100.00
64610;BME280;51019;46.090;6.350;2023-05-13T02:38:48;96352.28;;;9.99;100.00
64610;BME280;51019;46.090;6.350;2023-05-13T02:41:15;96352.28;;;9.99;100.00
64610;BME280;51019;46.090;6.350;2023-05-13T02:43:46;96352.81;;;9.93;100.00
64610;BME280;51019;46.090;6.350;2023-05-13T02:46:13;96336.19;;;9.84;100.00
64610;BME280;51019;46.090;6.350;2023-05-13T02:48:44;96353.00;;;9.82;100.00
64610;BME280;51019;46.090;6.350;2023-05-13T02:51:13;96351.22;;;9.92;100.00
64610;BME280;51019;46.090;6.350;2023-05-13T02:53:41;96351.41;;;10.08;100.00
64610;BME280;51019;46.090;6.350;2023-05-13T02:56:09;96328.16;;;9.96;100.00
64610;BME280;51019;46.090;6.350;2023-05-13T02:58:40;96325.03;;;9.82;100.00
64610;BME280;51019;46.090;6.350;2023-05-13T03:01:09;96354.47;;;9.94;100.00
64610;BME280;51019;46.090;6.350;2023-05-13T03:03:37;96361.88;;;10.08;100.00
64610;BME280;51019;46.090;6.350;2023-05-13T03:06:07;96356.78;;;10.07;100.00
64610;BME280;51019;46.090;6.350;2023-05-13T03:08:36;96354.34;;;9.96;100.00
64610;BME280;51019;46.090;6.350;2023-05-13T03:11:04;96363.56;;;10.00;100.00
64610;BME280;51019;46.090;6.350;2023-05-13T03:13:32;96361.09;;;9.98;100.00
64610;BME280;51019;46.090;6.350;2023-05-13T03:16:00;96368.84;;;9.90;100.00
64610;BME280;51019;46.090;6.350;2023-05-13T03:18:28;96369.34;;;10.03;100.00
64610;BME280;51019;46.090;6.350;2023-05-13T03:20:57;96371.97;;;9.94;100.00
64610;BME280;51019;46.090;6.350;2023-05-13T03:23:27;96355.63;;;9.82;100.00
64610;BME280;51019;46.090;6.350;2023-05-13T03:25:54;96359.50;;;9.78;100.00
64610;BME280;51019;46.090;6.350;2023-05-13T03:28:22;96368.19;;;9.78;100.00
64610;BME280;51019;46.090;6.350;2023-05-13T03:30:50;96369.63;;;10.00;100.00
64610;BME280;51019;46.090;6.350;2023-05-13T03:33:18;96369.88;;;10.07;100.00
64610;BME280;51019;46.090;6.350;2023-05-13T03:35:46;96327.81;;;9.71;100.00
64610;BME280;51019;46.090;6.350;2023-05-13T03:38:14;96365.53;;;9.88;100.00
64610;BME280;51019;46.090;6.350;2023-05-13T03:40:45;96365.22;;;10.01;100.00
64610;BME280;51019;46.090;6.350;2023-05-13T03:43:12;96368.97;;;9.89;100.00
64610;BME280;51019;46.090;6.350;2023-05-13T03:45:40;96364.44;;;9.91;100.00
64610;BME280;51019;46.090;6.350;2023-05-13T03:48:11;96369.91;;;9.97;100.00
64610;BME280;51019;46.090;6.350;2023-05-13T03:50:39;96374.97;;;10.08;100.00
64610;BME280;51019;46.090;6.350;2023-05-13T03:53:08;96367.72;;;10.02;100.00
64610;BME280;51019;46.090;6.350;2023-05-13T03:55:36;96376.25;;;9.95;100.00
64610;BME280;51019;46.090;6.350;2023-05-13T03:58:13;96383.69;;;9.99;100.00
64610;BME280;51019;46.090;6.350;2023-05-13T04:00:42;96380.25;;;9.99;100.00
64610;BME280;51019;46.090;6.350;2023-05-13T04:03:12;96381.00;;;9.81;100.00
64610;BME280;51019;46.090;6.350;2023-05-13T04:05:40;96386.38;;;9.80;100.00
64610;BME280;51019;46.090;6.350;2023-05-13T04:08:08;96379.72;;;9.86;100.00
64610;BME280;51019;46.090;6.350;2023-05-13T04:10:40;96381.94;;;9.90;100.00
64610;BME280;51019;46.090;6.350;2023-05-13T04:13:08;96381.00;;;9.81;100.00
64610;BME280;51019;46.090;6.350;2023-05-13T04:15:38;96377.94;;;9.86;100.00
64610;BME280;51019;46.090;6.350;2023-05-13T04:18:06;96377.69;;;9.79;100.00
64610;BME280;51019;46.090;6.350;2023-05-13T04:20:36;96390.88;;;9.88;100.00
64610;BME280;51019;46.090;6.350;2023-05-13T04:23:04;96369.41;;;9.74;100.00
64610;BME280;51019;46.090;6.350;2023-05-13T04:25:34;96398.56;;;9.99;100.00
64610;BME280;51019;46.090;6.350;2023-05-13T04:28:04;96396.22;;;9.96;100.00
64610;BME280;51019;46.090;6.350;2023-05-13T04:30:31;96334.50;;;9.56;100.00
64610;BME280;51019;46.090;6.350;2023-05-13T04:33:01;96400.19;;;10.09;100.00
64610;BME280;51019;46.090;6.350;2023-05-13T04:35:29;96402.03;;;9.99;100.00
64610;BME280;51019;46.090;6.350;2023-05-13T04:37:57;96406.31;;;9.91;100.00
64610;BME280;51019;46.090;6.350;2023-05-13T04:40:25;96407.38;;;9.98;100.00
64610;BME280;51019;46.090;6.350;2023-05-13T04:42:54;96408.94;;;9.91;100.00
64610;BME280;51019;46.090;6.350;2023-05-13T04:45:30;96397.38;;;9.74;100.00
64610;BME280;51019;46.090;6.350;2023-05-13T04:47:58;96409.22;;;9.88;100.00
64610;BME280;51019;46.090;6.350;2023-05-13T04:50:30;96417.00;;;10.07;100.00
64610;BME280;51019;46.090;6.350;2023-05-13T04:52:58;96413.44;;;9.98;100.00
64610;BME280;51019;46.090;6.350;2023-05-13T04:55:26;96425.59;;;9.99;100.00
64610;BME280;51019;46.090;6.350;2023-05-13T04:57:53;96429.97;;;10.08;100.00
64610;BME280;51019;46.090;6.350;2023-05-13T05:00:21;96431.63;;;10.09;100.00
64610;BME280;51019;46.090;6.350;2023-05-13T05:02:49;96435.47;;;10.15;100.00
64610;BME280;51019;46.090;6.350;2023-05-13T05:05:18;96439.88;;;10.14;100.00
64610;BME280;51019;46.090;6.350;2023-05-13T05:07:49;96427.09;;;10.02;100.00
64610;BME280;51019;46.090;6.350;2023-05-13T05:10:17;96426.69;;;9.97;100.00
64610;BME280;51019;46.090;6.350;2023-05-13T05:12:46;96437.13;;;10.06;100.00
64610;BME280;51019;46.090;6.350;2023-05-13T05:15:15;96439.75;;;10.06;100.00
64610;BME280;51019;46.090;6.350;2023-05-13T05:17:43;96439.88;;;10.14;100.00
64610;BME280;51019;46.090;6.350;2023-05-13T05:20:11;96444.00;;;10.17;100.00
64610;BME280;51019;46.090;6.350;2023-05-13T05:22:40;96437.25;;;10.05;100.00
64610;BME280;51019;46.090;6.350;2023-05-13T05:25:11;96434.94;;;10.11;100.00
64610;BME280;51019;46.090;6.350;2023-05-13T05:27:39;96445.66;;;10.28;100.00
64610;BME280;51019;46.090;6.350;2023-05-13T05:30:09;96455.47;;;10.26;100.00
64610;BME280;51019;46.090;6.350;2023-05-13T05:32:40;96451.31;;;10.13;100.00
64610;BME280;51019;46.090;6.350;2023-05-13T05:35:08;96448.72;;;10.13;100.00
64610;BME280;51019;46.090;6.350;2023-05-13T05:37:36;96447.19;;;10.21;100.00
64610;BME280;51019;46.090;6.350;2023-05-13T05:40:06;96455.66;;;10.42;100.00
64610;BME280;51019;46.090;6.350;2023-05-13T05:42:36;96453.22;;;10.31;100.00
64610;BME280;51019;46.090;6.350;2023-05-13T05:45:05;96458.97;;;10.44;100.00
64610;BME280;51019;46.090;6.350;2023-05-13T05:47:33;96452.34;;;10.49;100.00
64610;BME280;51019;46.090;6.350;2023-05-13T05:50:01;96456.63;;;10.41;100.00
64610;BME280;51019;46.090;6.350;2023-05-13T05:52:29;96456.41;;;10.34;100.00
64610;BME280;51019;46.090;6.350;2023-05-13T05:54:57;96461.59;;;10.44;100.00
64610;BME280;51019;46.090;6.350;2023-05-13T05:57:24;96442.72;;;10.40;100.00
64610;BME280;51019;46.090;6.350;2023-05-13T05:59:55;96450.69;;;10.48;100.00
64610;BME280;51019;46.090;6.350;2023-05-13T06:02:22;96459.66;;;10.46;100.00
64610;BME280;51019;46.090;6.350;2023-05-13T06:04:50;96464.59;;;10.59;100.00
64610;BME280;51019;46.090;6.350;2023-05-13T06:07:20;96460.56;;;10.64;100.00
64610;BME280;51019;46.090;6.350;2023-05-13T06:09:50;96459.03;;;10.71;100.00
64610;BME280;51019;46.090;6.350;2023-05-13T06:12:17;96445.50;;;10.66;100.00
64610;BME280;51019;46.090;6.350;2023-05-13T06:14:44;96452.94;;;10.71;100.00
64610;BME280;51019;46.090;6.350;2023-05-13T06:17:14;96473.59;;;10.83;100.00
64610;BME280;51019;46.090;6.350;2023-05-13T06:19:41;96471.13;;;10.82;100.00
64610;BME280;51019;46.090;6.350;2023-05-13T06:22:10;96474.84;;;10.79;100.00
64610;BME280;51019;46.090;6.350;2023-05-13T06:24:37;96465.38;;;10.69;100.00
64610;BME280;51019;46.090;6.350;2023-05-13T06:27:09;96475.22;;;10.84;100.00
64610;BME280;51019;46.090;6.350;2023-05-13T06:29:38;96475.59;;;10.62;100.00
64610;BME280;51019;46.090;6.350;2023-05-13T06:32:06;96446.47;;;10.38;100.00
64610;BME280;51019;46.090;6.350;2023-05-13T06:34:35;96490.84;;;10.76;100.00
64610;BME280;51019;46.090;6.350;2023-05-13T06:37:05;96461.97;;;10.59;100.00
64610;BME280;51019;46.090;6.350;2023-05-13T06:39:32;96422.53;;;10.23;100.00
64610;BME280;51019;46.090;6.350;2023-05-13T06:41:59;96479.44;;;10.68;100.00
64610;BME280;51019;46.090;6.350;2023-05-13T06:44:28;96490.28;;;10.82;100.00
64610;BME280;51019;46.090;6.350;2023-05-13T06:46:56;96488.88;;;10.88;100.00
64610;BME280;51019;46.090;6.350;2023-05-13T06:49:24;96487.28;;;11.05;100.00
64610;BME280;51019;46.090;6.350;2023-05-13T06:51:53;96477.09;;;11.19;100.00
64610;BME280;51019;46.090;6.350;2023-05-13T06:54:24;96484.91;;;11.29;100.00
64610;BME280;51019;46.090;6.350;2023-05-13T06:56:53;96490.31;;;11.27;100.00
64610;BME280;51019;46.090;6.350;2023-05-13T06:59:21;96478.31;;;11.25;100.00
64610;BME280;51019;46.090;6.350;2023-05-13T07:01:52;96472.44;;;11.13;100.00
64610;BME280;51019;46.090;6.350;2023-05-13T07:04:20;96468.41;;;11.19;100.00
64610;BME280;51019;46.090;6.350;2023-05-13T07:06:50;96480.88;;;11.35;100.00
64610;BME280;51019;46.090;6.350;2023-05-13T07:09:22;96483.34;;;11.36;100.00
64610;BME280;51019;46.090;6.350;2023-05-13T07:11:52;96470.78;;;11.40;100.00
64610;BME280;51019;46.090;6.350;2023-05-13T07:14:21;96486.94;;;11.53;100.00
64610;BME280;51019;46.090;6.350;2023-05-13T07:16:50;96488.72;;;11.62;100.00
64610;BME280;51019;46.090;6.350;2023-05-13T07:19:18;96486.38;;;11.77;100.00
64610;BME280;51019;46.090;6.350;2023-05-13T07:21:46;96486.44;;;11.49;100.00
64610;BME280;51019;46.090;6.350;2023-05-13T07:24:14;96492.53;;;11.85;100.00
64610;BME280;51019;46.090;6.350;2023-05-13T07:26:45;96503.41;;;11.73;100.00
64610;BME280;51019;46.090;6.350;2023-05-13T07:29:14;96495.53;;;11.90;100.00
64610;BME280;51019;46.090;6.350;2023-05-13T07:31:43;96495.63;;;11.81;100.00
64610;BME280;51019;46.090;6.350;2023-05-13T07:34:10;96500.53;;;11.66;100.00
64610;BME280;51019;46.090;6.350;2023-05-13T07:36:41;96492.88;;;11.55;100.00
64610;BME280;51019;46.090;6.350;2023-05-13T07:39:10;96460.63;;;11.45;100.00
64610;BME280;51019;46.090;6.350;2023-05-13T07:41:37;96488.09;;;11.68;100.00
64610;BME280;51019;46.090;6.350;2023-05-13T07:44:12;96498.31;;;11.89;100.00
64610;BME280;51019;46.090;6.350;2023-05-13T07:46:41;96494.03;;;11.88;100.00
64610;BME280;51019;46.090;6.350;2023-05-13T07:49:10;96480.69;;;11.81;100.00
64610;BME280;51019;46.090;6.350;2023-05-13T07:51:38;96493.44;;;11.94;100.00
64610;BME280;51019;46.090;6.350;2023-05-13T07:54:08;96487.94;;;12.05;100.00
64610;BME280;51019;46.090;6.350;2023-05-13T07:56:47;96486.00;;;12.07;100.00
64610;BME280;51019;46.090;6.350;2023-05-13T07:59:17;96468.97;;;11.93;100.00
64610;BME280;51019;46.090;6.350;2023-05-13T08:01:45;96471.97;;;11.98;100.00
64610;BME280;51019;46.090;6.350;2023-05-13T08:04:16;96487.47;;;12.27;100.00
64610;BME280;51019;46.090;6.350;2023-05-13T08:06:44;96490.53;;;12.49;100.00
64610;BME280;51019;46.090;6.350;2023-05-13T08:09:11;96485.28;;;12.49;100.00
64610;BME280;51019;46.090;6.350;2023-05-13T08:11:41;96487.66;;;12.60;100.00
64610;BME280;51019;46.090;6.350;2023-05-13T08:14:09;96493.38;;;12.89;100.00
64610;BME280;51019;46.090;6.350;2023-05-13T08:16:39;96492.50;;;12.72;100.00
64610;BME280;51019;46.090;6.350;2023-05-13T08:19:09;96474.09;;;12.72;100.00
64610;BME280;51019;46.090;6.350;2023-05-13T08:21:37;96488.13;;;12.89;100.00
64610;BME280;51019;46.090;6.350;2023-05-13T08:24:05;96484.06;;;13.45;100.00
64610;BME280;51019;46.090;6.350;2023-05-13T08:26:34;96489.69;;;13.66;100.00
64610;BME280;51019;46.090;6.350;2023-05-13T08:29:03;96489.56;;;13.92;100.00
64610;BME280;51019;46.090;6.350;2023-05-13T08:31:33;96488.06;;;13.90;100.00
64610;BME280;51019;46.090;6.350;2023-05-13T08:34:04;96481.00;;;13.98;100.00
64610;BME280;51019;46.090;6.350;2023-05-13T08:36:34;96483.13;;;14.27;100.00
64610;BME280;51019;46.090;6.350;2023-05-13T08:39:01;96482.63;;;14.32;100.00
64610;BME280;51019;46.090;6.350;2023-05-13T08:41:29;96484.78;;;14.20;100.00
64610;BME280;51019;46.090;6.350;2023-05-13T08:43:59;96473.41;;;14.28;100.00
64610;BME280;51019;46.090;6.350;2023-05-13T08:46:31;96468.94;;;14.36;100.00
64610;BME280;51019;46.090;6.350;2023-05-13T08:49:01;96471.97;;;14.88;100.00
64610;BME280;51019;46.090;6.350;2023-05-13T08:51:31;96476.06;;;15.30;100.00
64610;BME280;51019;46.090;6.350;2023-05-13T08:54:00;96479.50;;;15.92;100.00
64610;BME280;51019;46.090;6.350;2023-05-13T08:56:31;96481.31;;;16.15;100.00
64610;BME280;51019;46.090;6.350;2023-05-13T08:59:00;96479.97;;;15.96;100.00
64610;BME280;51019;46.090;6.350;2023-05-13T09:01:29;96479.31;;;16.17;100.00
64610;BME280;51019;46.090;6.350;2023-05-13T09:04:03;96468.50;;;16.41;100.00
64610;BME280;51019;46.090;6.350;2023-05-13T09:06:35;96476.16;;;16.88;100.00
64610;BME280;51019;46.090;6.350;2023-05-13T09:09:03;96482.03;;;17.34;100.00
64610;BME280;51019;46.090;6.350;2023-05-13T09:11:31;96457.72;;;17.46;100.00
64610;BME280;51019;46.090;6.350;2023-05-13T09:14:01;96473.28;;;17.04;100.00
64610;BME280;51019;46.090;6.350;2023-05-13T09:16:36;96476.28;;;17.82;100.00
64610;BME280;51019;46.090;6.350;2023-05-13T09:19:06;96469.81;;;18.12;100.00
64610;BME280;51019;46.090;6.350;2023-05-13T09:21:39;96458.78;;;18.08;100.00
64610;BME280;51019;46.090;6.350;2023-05-13T09:24:11;96442.28;;;18.13;100.00
64610;BME280;51019;46.090;6.350;2023-05-13T09:26:43;96465.16;;;17.21;100.00
64610;BME280;51019;46.090;6.350;2023-05-13T09:29:19;96468.84;;;16.76;100.00
64610;BME280;51019;46.090;6.350;2023-05-13T09:31:48;96468.47;;;15.66;100.00
64610;BME280;51019;46.090;6.350;2023-05-13T09:34:24;96442.06;;;15.66;100.00
64610;BME280;51019;46.090;6.350;2023-05-13T09:37:04;96449.97;;;15.35;100.00
64610;BME280;51019;46.090;6.350;2023-05-13T09:39:33;96467.16;;;14.92;100.00
64610;BME280;51019;46.090;6.350;2023-05-13T09:42:06;96450.34;;;14.93;100.00
64610;BME280;51019;46.090;6.350;2023-05-13T09:44:41;96468.16;;;14.99;100.00
64610;BME280;51019;46.090;6.350;2023-05-13T09:47:11;96459.31;;;14.76;100.00
64610;BME280;51019;46.090;6.350;2023-05-13T09:49:44;96470.16;;;15.28;100.00
64610;BME280;51019;46.090;6.350;2023-05-13T09:52:23;96459.97;;;15.48;100.00
64610;BME280;51019;46.090;6.350;2023-05-13T09:54:52;96420.38;;;15.17;100.00
64610;BME280;51019;46.090;6.350;2023-05-13T09:57:22;96458.78;;;15.81;100.00
64610;BME280;51019;46.090;6.350;2023-05-13T09:59:56;96435.94;;;15.88;100.00
64610;BME280;51019;46.090;6.350;2023-05-13T10:02:26;96460.06;;;16.08;100.00
64610;BME280;51019;46.090;6.350;2023-05-13T10:04:55;96466.31;;;16.30;100.00
64610;BME280;51019;46.090;6.350;2023-05-13T10:07:27;96468.66;;;16.77;100.00
64610;BME280;51019;46.090;6.350;2023-05-13T10:10:00;96466.78;;;16.48;100.00
64610;BME280;51019;46.090;6.350;2023-05-13T10:12:35;96463.28;;;17.00;100.00
64610;BME280;51019;46.090;6.350;2023-05-13T10:15:05;96434.41;;;16.46;100.00
64610;BME280;51019;46.090;6.350;2023-05-13T10:17:35;96465.53;;;17.18;100.00
64610;BME280;51019;46.090;6.350;2023-05-13T10:20:04;96456.06;;;17.45;100.00
64610;BME280;51019;46.090;6.350;2023-05-13T10:22:34;96450.16;;;17.78;97.81
64610;BME280;51019;46.090;6.350;2023-05-13T10:25:03;96456.41;;;17.92;100.00
64610;BME280;51019;46.090;6.350;2023-05-13T10:27:32;96458.56;;;17.82;98.56
64610;BME280;51019;46.090;6.350;2023-05-13T10:30:01;96455.13;;;17.52;100.00
64610;BME280;51019;46.090;6.350;2023-05-13T10:32:35;96457.41;;;17.04;100.00
64610;BME280;51019;46.090;6.350;2023-05-13T10:35:09;96452.31;;;17.03;99.38
64610;BME280;51019;46.090;6.350;2023-05-13T10:38:02;96460.63;;;16.70;100.00
64610;BME280;51019;46.090;6.350;2023-05-13T10:40:58;96451.22;;;16.83;100.00
64610;BME280;51019;46.090;6.350;2023-05-13T10:43:30;96456.81;;;16.88;100.00
64610;BME280;51019;46.090;6.350;2023-05-13T10:46:03;96451.50;;;16.88;100.00
64610;BME280;51019;46.090;6.350;2023-05-13T10:48:39;96444.69;;;16.41;100.00
64610;BME280;51019;46.090;6.350;2023-05-13T10:51:09;96443.63;;;17.09;99.33
64610;BME280;51019;46.090;6.350;2023-05-13T10:53:50;96451.84;;;17.50;96.35
64610;BME280;51019;46.090;6.350;2023-05-13T10:56:20;96448.19;;;17.66;95.69
64610;BME280;51019;46.090;6.350;2023-05-13T10:58:57;96440.25;;;17.51;93.60
64610;BME280;51019;46.090;6.350;2023-05-13T11:01:27;96443.22;;;16.91;96.57
64610;BME280;51019;46.090;6.350;2023-05-13T11:03:57;96444.56;;;16.87;95.70
64610;BME280;51019;46.090;6.350;2023-05-13T11:06:29;96434.50;;;17.48;96.65
64610;BME280;51019;46.090;6.350;2023-05-13T11:08:59;96437.34;;;17.46;92.88
64610;BME280;51019;46.090;6.350;2023-05-13T11:11:30;96437.25;;;17.75;91.65
64610;BME280;51019;46.090;6.350;2023-05-13T11:14:07;96430.56;;;17.22;93.57
64610;BME280;51019;46.090;6.350;2023-05-13T11:16:36;96417.19;;;17.66;80.27
64610;BME280;51019;46.090;6.350;2023-05-13T11:19:18;96432.91;;;17.89;78.66
64610;BME280;51019;46.090;6.350;2023-05-13T11:21:49;96416.56;;;17.28;78.56
64610;BME280;51019;46.090;6.350;2023-05-13T11:24:20;96402.59;;;17.56;79.31
64610;BME280;51019;46.090;6.350;2023-05-13T11:26:51;96393.13;;;17.25;78.55
64610;BME280;51019;46.090;6.350;2023-05-13T11:29:27;96370.88;;;17.05;78.78
64610;BME280;51019;46.090;6.350;2023-05-13T11:31:56;96405.19;;;17.13;77.75
64610;BME280;51019;46.090;6.350;2023-05-13T11:34:25;96411.16;;;17.00;79.06
64610;BME280;51019;46.090;6.350;2023-05-13T11:37:06;96402.28;;;17.08;81.18
64610;BME280;51019;46.090;6.350;2023-05-13T11:39:40;96416.69;;;17.41;77.02
64610;BME280;51019;46.090;6.350;2023-05-13T11:42:09;96408.00;;;17.26;74.75
64610;BME280;51019;46.090;6.350;2023-05-13T11:44:45;96406.94;;;18.06;70.13
64610;BME280;51019;46.090;6.350;2023-05-13T11:47:24;96386.44;;;17.51;72.07
64610;BME280;51019;46.090;6.350;2023-05-13T11:49:53;96413.06;;;18.06;72.37
64610;BME280;51019;46.090;6.350;2023-05-13T11:52:21;96416.19;;;18.44;67.15
64610;BME280;51019;46.090;6.350;2023-05-13T11:54:52;96409.88;;;18.45;67.62
64610;BME280;51019;46.090;6.350;2023-05-13T11:57:25;96414.13;;;18.68;69.66
64610;BME280;51019;46.090;6.350;2023-05-13T11:59:54;96408.25;;;18.72;71.61
64610;BME280;51019;46.090;6.350;2023-05-13T12:02:24;96421.28;;;17.90;73.59
64610;BME280;51019;46.090;6.350;2023-05-13T12:04:54;96419.09;;;18.22;70.76
64610;BME280;51019;46.090;6.350;2023-05-13T12:07:24;96416.94;;;17.83;71.22
64610;BME280;51019;46.090;6.350;2023-05-13T12:09:58;96424.78;;;17.91;69.10
64610;BME280;51019;46.090;6.350;2023-05-13T12:12:27;96422.16;;;18.53;69.57
64610;BME280;51019;46.090;6.350;2023-05-13T12:14:55;96407.56;;;18.64;69.66
64610;BME280;51019;46.090;6.350;2023-05-13T12:17:25;96410.22;;;18.08;69.67
64610;BME280;51019;46.090;6.350;2023-05-13T12:20:10;96403.44;;;17.77;68.77
64610;BME280;51019;46.090;6.350;2023-05-13T12:22:50;96403.47;;;17.84;66.84
64610;BME280;51019;46.090;6.350;2023-05-13T12:25:47;96406.88;;;17.57;66.77
64610;BME280;51019;46.090;6.350;2023-05-13T12:28:19;96394.59;;;17.92;67.52
64610;BME280;51019;46.090;6.350;2023-05-13T12:30:51;96411.66;;;18.10;68.81
64610;BME280;51019;46.090;6.350;2023-05-13T12:33:28;96398.25;;;18.46;70.54
64610;BME280;51019;46.090;6.350;2023-05-13T12:36:16;96404.00;;;18.50;69.28
64610;BME280;51019;46.090;6.350;2023-05-13T12:38:56;96411.25;;;17.86;73.21
64610;BME280;51019;46.090;6.350;2023-05-13T12:41:30;96404.94;;;17.87;73.96
64610;BME280;51019;46.090;6.350;2023-05-13T12:44:01;96410.31;;;17.72;73.75
64610;BME280;51019;46.090;6.350;2023-05-13T12:46:30;96403.09;;;17.45;74.97
64610;BME280;51019;46.090;6.350;2023-05-13T12:49:01;96402.34;;;17.72;75.79
64610;BME280;51019;46.090;6.350;2023-05-13T12:51:36;96412.84;;;17.80;78.18
64610;BME280;51019;46.090;6.350;2023-05-13T12:54:04;96406.34;;;17.25;80.69
64610;BME280;51019;46.090;6.350;2023-05-13T12:56:34;96405.16;;;16.92;83.02
64610;BME280;51019;46.090;6.350;2023-05-13T12:59:05;96412.78;;;17.01;81.62
64610;BME280;51019;46.090;6.350;2023-05-13T13:01:36;96385.50;;;17.01;83.78
64610;BME280;51019;46.090;6.350;2023-05-13T13:04:08;96407.78;;;16.92;85.29
64610;BME280;51019;46.090;6.350;2023-05-13T13:06:37;96398.16;;;17.05;79.68
64610;BME280;51019;46.090;6.350;2023-05-13T13:09:04;96406.50;;;16.58;84.13
64610;BME280;51019;46.090;6.350;2023-05-13T13:11:34;96401.22;;;16.58;87.01
64610;BME280;51019;46.090;6.350;2023-05-13T13:14:04;96414.47;;;17.60;95.13